Time;durP1;ratioP1;P1;durP2;ratioP2;P2;SDS_P1;SDS_P2;PMS_P1;PMS_P2;Temp;Humidity;BMP_temperature;BMP_pressure;BME280_temperature;BME280_humidity;BME280_pressure;Samples;Min_cycle;Max_cycle;Signal;HPM_P1;HPM_P2
2023/08/25 00:01:47;;;;;;;12.05;5.50;;;16.00;99.90;;;;;;5095290;28;20224;-77
2023/08/25 00:04:18;;;;;;;9.07;5.00;;;16.10;99.90;;;;;;5096335;28;20663;-78
2023/08/25 00:06:48;;;;;;;8.50;5.03;;;16.20;99.90;;;;;;5096268;28;20723;-79
2023/08/25 00:09:19;;;;;;;9.18;4.68;;;16.40;99.90;;;;;;5079413;28;20185;-78
2023/08/25 00:11:50;;;;;;;8.00;4.20;;;16.50;99.90;;;;;;5096460;28;20227;-78
2023/08/25 00:14:22;;;;;;;7.97;4.35;;;16.60;99.90;;;;;;5096835;28;20241;-76
2023/08/25 00:16:53;;;;;;;8.82;4.30;;;16.70;99.90;;;;;;5096548;28;20188;-76
2023/08/25 00:19:24;;;;;;;8.18;4.25;;;16.80;99.90;;;;;;5080341;28;20197;-79
2023/08/25 00:21:55;;;;;;;10.63;4.32;;;17.00;99.90;;;;;;5096193;28;20243;-79
2023/08/25 00:24:25;;;;;;;8.20;4.10;;;17.10;99.90;;;;;;5090808;28;20299;-76
2023/08/25 00:26:56;;;;;;;8.60;4.30;;;17.20;99.90;;;;;;5084307;28;20223;-78
2023/08/25 00:29:29;;;;;;;7.38;4.00;;;17.30;99.90;;;;;;5076015;28;20200;-80
2023/08/25 00:32:00;;;;;;;8.32;3.78;;;17.40;99.90;;;;;;5075215;28;20205;-77
2023/08/25 00:34:30;;;;;;;6.22;3.83;;;17.60;99.90;;;;;;5085793;28;20192;-77
2023/08/25 00:37:01;;;;;;;7.53;3.40;;;17.70;99.90;;;;;;5077078;28;20242;-78
2023/08/25 00:39:32;;;;;;;7.68;3.50;;;17.80;99.90;;;;;;5087185;28;20563;-77
2023/08/25 00:42:02;;;;;;;8.77;3.20;;;17.90;99.90;;;;;;5095218;28;20212;-76
2023/08/25 00:44:35;;;;;;;4.88;2.80;;;18.00;99.90;;;;;;5096020;28;20195;-76
2023/08/25 00:47:06;;;;;;;7.07;2.88;;;18.10;99.90;;;;;;5093048;28;20206;-79
2023/08/25 00:49:37;;;;;;;7.97;2.78;;;18.10;99.90;;;;;;5087933;28;20189;-80
2023/08/25 00:52:09;;;;;;;7.72;2.70;;;18.30;99.90;;;;;;5085437;28;20204;-77
2023/08/25 00:54:40;;;;;;;6.78;2.78;;;18.40;99.90;;;;;;5091468;28;20262;-77
2023/08/25 00:57:11;;;;;;;3.55;2.20;;;18.60;99.90;;;;;;5080404;28;20197;-78
2023/08/25 00:59:44;;;;;;;7.03;2.40;;;18.70;99.90;;;;;;5075291;28;20664;-75
2023/08/25 01:02:15;;;;;;;3.17;1.42;;;18.90;99.90;;;;;;5075352;28;20591;-77
2023/08/25 01:04:46;;;;;;;2.88;1.50;;;19.00;99.90;;;;;;5075241;28;20193;-79
2023/08/25 01:07:17;;;;;;;1.63;1.30;;;19.20;99.90;;;;;;5082185;28;20200;-73
2023/08/25 01:09:48;;;;;;;2.38;1.65;;;19.30;99.90;;;;;;5092758;28;20192;-75
2023/08/25 01:12:27;;;;;;;2.20;1.40;;;19.40;99.90;;;;;;5089384;28;20234;-78
2023/08/25 01:15:06;;;;;;;3.55;1.40;;;19.50;99.90;;;;;;5094550;28;20207;-78
2023/08/25 01:17:42;;;;;;;2.50;1.50;;;19.60;99.90;;;;;;5095308;28;20202;-77
2023/08/25 01:20:14;;;;;;;2.97;1.25;;;19.70;99.90;;;;;;5080202;28;20221;-76
2023/08/25 01:22:55;;;;;;;2.13;1.35;;;19.70;99.90;;;;;;5090606;28;20748;-78
2023/08/25 01:25:30;;;;;;;2.40;1.33;;;19.80;99.90;;;;;;5091264;28;20197;-79
2023/08/25 01:28:03;;;;;;;2.92;1.50;;;19.90;99.90;;;;;;5088700;28;20192;-81
2023/08/25 01:30:35;;;;;;;3.08;1.30;;;20.00;99.90;;;;;;5080843;28;20192;-82
2023/08/25 01:33:06;;;;;;;1.30;1.20;;;20.10;99.90;;;;;;5083272;28;20205;-81
2023/08/25 01:35:48;;;;;;;2.08;1.08;;;20.20;99.90;;;;;;5079864;28;20652;-83
2023/08/25 01:38:26;;;;;;;2.75;1.27;;;20.30;99.90;;;;;;5080640;28;20207;-79
2023/08/25 01:41:05;;;;;;;2.00;1.20;;;20.30;99.90;;;;;;5091465;28;20643;-78
2023/08/25 01:43:40;;;;;;;2.30;1.13;;;20.40;99.90;;;;;;5092918;28;21162;-82
2023/08/25 01:46:13;;;;;;;4.68;1.50;;;20.40;99.90;;;;;;5085046;28;20200;-81
2023/08/25 01:48:45;;;;;;;1.73;1.20;;;20.20;99.90;;;;;;5080440;28;20193;-80
2023/08/25 01:51:16;;;;;;;3.38;1.20;;;20.30;99.90;;;;;;5074077;28;20228;-80
2023/08/25 01:53:49;;;;;;;1.83;1.15;;;20.40;99.90;;;;;;5084902;28;20204;-82
2023/08/25 01:56:22;;;;;;;1.70;1.20;;;20.50;99.90;;;;;;5083127;28;20197;-79
2023/08/25 01:58:53;;;;;;;2.38;1.17;;;20.60;99.90;;;;;;5081622;28;20197;-82
2023/08/25 02:01:25;;;;;;;2.08;1.00;;;20.50;99.90;;;;;;5091323;28;20610;-82
2023/08/25 02:03:56;;;;;;;1.15;0.90;;;20.60;99.90;;;;;;5079702;28;20220;-82
2023/08/25 02:06:27;;;;;;;1.33;1.00;;;20.70;99.90;;;;;;5076286;28;20184;-80
2023/08/25 02:08:58;;;;;;;0.98;0.88;;;20.70;99.90;;;;;;5086500;28;20188;-78
2023/08/25 02:11:30;;;;;;;2.88;1.13;;;20.70;99.90;;;;;;5093483;28;20231;-78
2023/08/25 02:14:01;;;;;;;2.63;1.00;;;20.60;99.90;;;;;;5085009;28;20200;-83
2023/08/25 02:16:32;;;;;;;2.08;0.90;;;20.70;99.90;;;;;;5082242;28;20189;-82
2023/08/25 02:19:03;;;;;;;1.83;0.90;;;20.80;99.90;;;;;;5084890;28;20192;-80
2023/08/25 02:21:33;;;;;;;1.70;0.93;;;20.70;99.90;;;;;;5090458;28;20216;-79
2023/08/25 02:24:04;;;;;;;1.65;0.90;;;20.80;99.90;;;;;;5080057;28;20232;-79
2023/08/25 02:26:37;;;;;;;1.00;0.80;;;20.80;99.90;;;;;;5092109;28;20224;-82
2023/08/25 02:29:08;;;;;;;2.72;1.10;;;20.70;99.90;;;;;;5084852;28;20193;-79
2023/08/25 02:31:39;;;;;;;1.60;0.80;;;20.80;99.90;;;;;;5082116;28;20204;-81
2023/08/25 02:34:09;;;;;;;1.52;0.80;;;20.90;99.90;;;;;;5074358;28;20197;-82
2023/08/25 02:36:40;;;;;;;1.17;0.60;;;20.80;99.90;;;;;;5087900;28;20199;-81
2023/08/25 02:39:12;;;;;;;1.13;0.73;;;20.80;99.90;;;;;;5088978;28;20196;-83
2023/08/25 02:41:44;;;;;;;1.02;0.82;;;20.70;99.90;;;;;;5088062;28;20188;-84
2023/08/25 02:44:15;;;;;;;0.98;0.60;;;20.70;99.90;;;;;;5089212;28;20211;-82
2023/08/25 02:46:46;;;;;;;0.82;0.50;;;20.70;99.90;;;;;;5092335;28;20235;-79
2023/08/25 02:49:16;;;;;;;0.82;0.77;;;20.70;99.90;;;;;;5093128;28;20301;-79
2023/08/25 02:51:47;;;;;;;1.45;0.75;;;20.70;99.90;;;;;;5093535;28;20631;-82
2023/08/25 02:54:18;;;;;;;1.40;0.63;;;20.70;99.90;;;;;;5085980;28;20793;-80
2023/08/25 02:56:52;;;;;;;0.68;0.50;;;20.70;99.90;;;;;;5076898;28;20636;-80
2023/08/25 02:59:22;;;;;;;1.25;0.70;;;20.70;99.90;;;;;;5056214;28;20193;-81
2023/08/25 03:01:53;;;;;;;1.02;0.60;;;20.60;99.90;;;;;;5072942;28;20554;-82
2023/08/25 03:04:24;;;;;;;0.60;0.60;;;20.70;99.90;;;;;;5082769;28;20207;-85
2023/08/25 03:06:56;;;;;;;0.70;0.43;;;20.60;99.90;;;;;;5091475;28;20553;-82
2023/08/25 03:09:26;;;;;;;3.40;0.77;;;20.50;99.90;;;;;;5092839;28;20193;-80
2023/08/25 03:11:59;;;;;;;0.40;0.40;;;20.40;99.90;;;;;;5078526;28;20239;-80
2023/08/25 03:14:30;;;;;;;0.70;0.50;;;20.30;99.90;;;;;;5077704;28;20196;-81
2023/08/25 03:17:01;;;;;;;1.13;0.50;;;20.40;99.90;;;;;;5092995;28;20200;-82
2023/08/25 03:19:32;;;;;;;0.93;0.60;;;20.40;99.90;;;;;;5092783;28;20684;-79
2023/08/25 03:22:02;;;;;;;1.40;0.80;;;20.40;99.90;;;;;;5088539;28;20758;-81
2023/08/25 03:24:33;;;;;;;1.20;0.60;;;20.50;99.90;;;;;;5091658;28;20208;-78
2023/08/25 03:27:06;;;;;;;2.88;0.57;;;20.60;99.90;;;;;;5076499;28;20237;-81
2023/08/25 03:29:38;;;;;;;1.02;0.52;;;20.50;99.90;;;;;;5086790;28;20184;-80
2023/08/25 03:32:09;;;;;;;2.35;0.70;;;20.50;99.90;;;;;;5078621;28;20253;-80
2023/08/25 03:34:40;;;;;;;2.25;0.80;;;20.50;99.90;;;;;;5087502;28;20199;-82
2023/08/25 03:37:11;;;;;;;0.98;0.60;;;20.40;99.90;;;;;;5089415;28;20191;-82
2023/08/25 03:39:42;;;;;;;1.77;0.63;;;20.40;99.90;;;;;;5085074;28;20184;-81
2023/08/25 03:42:14;;;;;;;1.63;0.60;;;20.40;99.90;;;;;;5072683;28;20188;-82
2023/08/25 03:44:47;;;;;;;1.70;1.00;;;20.40;99.90;;;;;;5077819;28;20303;-80
2023/08/25 03:47:18;;;;;;;2.60;0.82;;;20.40;99.90;;;;;;5081884;28;20192;-81
2023/08/25 03:49:48;;;;;;;2.78;0.80;;;20.40;99.90;;;;;;5076847;28;20192;-81
2023/08/25 03:52:19;;;;;;;2.63;0.90;;;20.40;99.90;;;;;;5089633;28;20215;-84
2023/08/25 03:54:50;;;;;;;2.47;0.80;;;20.30;99.90;;;;;;5091724;28;20199;-81
2023/08/25 03:57:23;;;;;;;2.42;0.93;;;20.20;99.90;;;;;;5092512;28;20227;-81
2023/08/25 03:59:53;;;;;;;2.40;0.80;;;20.10;99.90;;;;;;5089157;28;20565;-80
2023/08/25 04:02:24;;;;;;;2.75;0.80;;;20.20;99.90;;;;;;5086476;28;20656;-81
2023/08/25 04:04:55;;;;;;;3.08;0.82;;;20.10;99.90;;;;;;5085347;28;20215;-81
2023/08/25 04:07:26;;;;;;;4.05;0.90;;;20.10;99.90;;;;;;5080725;28;20205;-80
2023/08/25 04:09:58;;;;;;;3.05;0.85;;;20.10;99.90;;;;;;5072949;28;20200;-81
2023/08/25 04:12:30;;;;;;;3.90;0.70;;;20.10;99.90;;;;;;5072529;28;20235;-81
2023/08/25 04:15:01;;;;;;;2.88;0.80;;;20.00;99.90;;;;;;5072234;28;20189;-78
2023/08/25 04:17:34;;;;;;;2.33;0.70;;;19.90;99.90;;;;;;5080311;28;20196;-80
2023/08/25 04:20:05;;;;;;;1.50;0.52;;;19.90;99.90;;;;;;5094615;28;20219;-79
2023/08/25 04:22:36;;;;;;;2.78;0.80;;;19.90;99.90;;;;;;5096042;28;20185;-82
2023/08/25 04:25:07;;;;;;;4.45;0.90;;;19.90;99.90;;;;;;5094337;28;20197;-79
2023/08/25 04:27:39;;;;;;;3.58;1.45;;;19.90;99.90;;;;;;5094578;28;20197;-79
2023/08/25 04:30:11;;;;;;;2.60;0.77;;;19.80;99.90;;;;;;5074883;28;20608;-77
2023/08/25 04:32:41;;;;;;;3.63;2.65;;;19.80;99.90;;;;;;5075901;28;20189;-79
2023/08/25 04:35:12;;;;;;;10.13;6.65;;;19.70;99.90;;;;;;5076029;28;20197;-80
2023/08/25 04:37:47;;;;;;;2.30;1.50;;;19.70;99.90;;;;;;5095729;28;20203;-81
2023/08/25 04:40:18;;;;;;;3.83;1.20;;;19.60;99.90;;;;;;5095837;28;20556;-80
2023/08/25 04:42:50;;;;;;;1.45;0.80;;;19.60;99.90;;;;;;5095921;28;20188;-81
2023/08/25 04:45:21;;;;;;;2.67;0.93;;;19.50;99.90;;;;;;5096135;28;20199;-80
2023/08/25 04:47:52;;;;;;;2.45;0.93;;;19.40;99.90;;;;;;5094777;28;20200;-81
2023/08/25 04:50:23;;;;;;;2.78;1.00;;;19.30;99.90;;;;;;5095732;28;20200;-80
2023/08/25 04:52:53;;;;;;;2.65;1.15;;;19.30;99.90;;;;;;5095898;28;20662;-80
2023/08/25 04:55:24;;;;;;;2.03;1.38;;;19.30;99.90;;;;;;5096057;28;20192;-80
2023/08/25 04:57:57;;;;;;;1.67;1.27;;;19.30;99.90;;;;;;5095488;28;20560;-79
2023/08/25 05:00:29;;;;;;;3.92;1.00;;;19.40;99.90;;;;;;5095514;28;20196;-79
2023/08/25 05:02:59;;;;;;;2.40;0.70;;;19.40;99.90;;;;;;5096066;28;20195;-81
2023/08/25 05:05:30;;;;;;;1.30;0.82;;;19.40;99.90;;;;;;5094039;28;20196;-80
2023/08/25 05:08:01;;;;;;;5.85;1.30;;;19.20;99.90;;;;;;5095430;28;20562;-80
2023/08/25 05:10:31;;;;;;;2.63;0.98;;;19.30;99.90;;;;;;5095428;28;20199;-80
2023/08/25 05:13:04;;;;;;;1.80;0.93;;;19.30;99.90;;;;;;5095366;28;20188;-80
2023/08/25 05:15:35;;;;;;;2.72;1.13;;;19.30;99.90;;;;;;5095508;28;20194;-81
2023/08/25 05:18:06;;;;;;;2.45;1.10;;;19.30;99.90;;;;;;5095341;28;20188;-80
2023/08/25 05:20:37;;;;;;;3.95;0.90;;;19.30;99.90;;;;;;5095423;28;20224;-80
2023/08/25 05:23:08;;;;;;;3.67;0.90;;;19.20;99.90;;;;;;5093825;28;20200;-80
2023/08/25 05:25:39;;;;;;;3.17;0.93;;;19.20;99.90;;;;;;5084713;28;20647;-80
2023/08/25 05:28:12;;;;;;;3.38;0.98;;;19.20;99.90;;;;;;5074454;28;20207;-80
2023/08/25 05:30:43;;;;;;;4.72;1.75;;;19.20;99.90;;;;;;5075026;28;20189;-80
2023/08/25 05:33:14;;;;;;;3.25;1.20;;;19.20;99.90;;;;;;5075168;28;20185;-79
2023/08/25 05:35:44;;;;;;;3.88;1.30;;;19.20;99.90;;;;;;5074916;28;20197;-80
2023/08/25 05:38:15;;;;;;;5.43;1.38;;;19.20;99.90;;;;;;5074673;28;20189;-76
2023/08/25 05:40:46;;;;;;;4.15;1.20;;;19.20;99.90;;;;;;5074492;28;20189;-79
2023/08/25 05:43:18;;;;;;;4.82;1.20;;;19.00;99.90;;;;;;5074714;28;20551;-81
2023/08/25 05:45:49;;;;;;;2.95;1.02;;;19.00;99.90;;;;;;5074432;28;20276;-81
2023/08/25 05:48:20;;;;;;;8.25;1.60;;;19.00;99.90;;;;;;5074261;28;20189;-81
2023/08/25 05:50:50;;;;;;;3.70;1.40;;;19.00;99.90;;;;;;5074269;28;20201;-79
2023/08/25 05:53:21;;;;;;;3.97;1.20;;;19.00;99.90;;;;;;5074293;28;20645;-80
2023/08/25 05:55:53;;;;;;;2.30;1.10;;;18.90;99.90;;;;;;5074033;28;20189;-80
2023/08/25 05:58:25;;;;;;;3.60;1.02;;;18.90;99.90;;;;;;5074361;28;20263;-80
2023/08/25 06:00:56;;;;;;;3.72;1.17;;;18.90;99.90;;;;;;5074246;28;20557;-80
2023/08/25 06:03:27;;;;;;;3.00;1.13;;;18.90;99.90;;;;;;5074144;28;20233;-78
2023/08/25 06:05:58;;;;;;;2.65;0.95;;;18.90;99.90;;;;;;5073960;28;20193;-82
2023/08/25 06:08:29;;;;;;;3.85;1.00;;;18.80;99.90;;;;;;5078866;28;20181;-81
2023/08/25 06:10:59;;;;;;;2.22;0.90;;;18.70;99.90;;;;;;5082251;28;20809;-80
2023/08/25 06:13:32;;;;;;;3.20;0.90;;;18.70;99.90;;;;;;5082293;28;20190;-80
2023/08/25 06:16:04;;;;;;;5.07;0.90;;;18.60;99.90;;;;;;5086263;28;20181;-78
2023/08/25 06:18:35;;;;;;;3.88;1.00;;;18.60;99.90;;;;;;5074087;28;20189;-81
2023/08/25 06:21:05;;;;;;;2.67;1.00;;;18.60;99.90;;;;;;5074514;28;20196;-80
2023/08/25 06:23:39;;;;;;;5.13;1.35;;;18.60;99.90;;;;;;5073754;28;20189;-80
2023/08/25 06:26:10;;;;;;;3.33;1.30;;;18.60;99.90;;;;;;5082362;28;20184;-81
2023/08/25 06:28:43;;;;;;;3.75;1.20;;;18.60;99.90;;;;;;5090865;28;20189;-81
2023/08/25 06:31:14;;;;;;;3.05;1.00;;;18.60;99.90;;;;;;5083873;28;20200;-77
2023/08/25 06:33:45;;;;;;;2.20;1.05;;;18.60;99.90;;;;;;5073440;28;20238;-78
2023/08/25 06:36:16;;;;;;;2.55;0.90;;;18.60;99.90;;;;;;5074730;28;20569;-80
2023/08/25 06:38:50;;;;;;;2.10;1.15;;;18.50;99.90;;;;;;5073596;28;20219;-80
2023/08/25 06:41:20;;;;;;;4.38;1.00;;;18.50;99.90;;;;;;5073256;28;20563;-80
2023/08/25 06:43:53;;;;;;;3.83;1.08;;;18.30;99.90;;;;;;5073440;28;20219;-81
2023/08/25 06:46:24;;;;;;;3.65;1.10;;;18.30;99.90;;;;;;5074441;28;20219;-81
2023/08/25 06:48:55;;;;;;;2.05;1.00;;;18.20;99.90;;;;;;5073472;28;20200;-82
2023/08/25 06:51:25;;;;;;;3.08;1.00;;;18.10;99.90;;;;;;5075251;28;20207;-81
2023/08/25 06:53:57;;;;;;;3.78;1.08;;;18.10;99.90;;;;;;5072823;28;20205;-81
2023/08/25 06:56:28;;;;;;;2.10;1.10;;;18.00;99.90;;;;;;5078167;28;20196;-81
2023/08/25 06:59:01;;;;;;;1.85;0.90;;;18.00;99.90;;;;;;5073227;28;20203;-80
2023/08/25 07:01:31;;;;;;;3.90;0.90;;;18.00;99.90;;;;;;5074224;28;20548;-79
2023/08/25 07:04:02;;;;;;;2.25;1.02;;;18.00;99.90;;;;;;5082367;28;20218;-80
2023/08/25 07:06:33;;;;;;;6.47;1.13;;;17.90;99.90;;;;;;5073794;28;20246;-81
2023/08/25 07:09:04;;;;;;;3.67;1.05;;;17.90;99.90;;;;;;5072902;28;20193;-81
2023/08/25 07:11:34;;;;;;;2.67;0.80;;;17.90;99.90;;;;;;5072846;28;20696;-81
2023/08/25 07:14:07;;;;;;;3.70;1.25;;;17.80;99.90;;;;;;5083794;28;20662;-81
2023/08/25 07:16:38;;;;;;;3.33;1.10;;;17.80;99.90;;;;;;5091495;28;20185;-80
2023/08/25 07:19:09;;;;;;;4.88;1.38;;;17.80;99.90;;;;;;5093287;28;20608;-81
2023/08/25 07:21:39;;;;;;;4.85;1.23;;;17.70;99.90;;;;;;5086716;28;20193;-81
2023/08/25 07:24:10;;;;;;;3.88;1.20;;;17.60;99.90;;;;;;5072696;28;20219;-81
2023/08/25 07:26:41;;;;;;;3.88;1.25;;;17.50;99.90;;;;;;5077111;28;20211;-79
2023/08/25 07:29:14;;;;;;;2.88;1.00;;;17.50;99.90;;;;;;5083592;28;20192;-81
2023/08/25 07:31:44;;;;;;;5.63;1.30;;;17.40;99.90;;;;;;5073144;28;20244;-81
2023/08/25 07:34:15;;;;;;;4.60;1.10;;;17.30;99.90;;;;;;5075596;28;20203;-81
2023/08/25 07:36:46;;;;;;;3.55;1.38;;;17.30;99.90;;;;;;5075443;28;20200;-80
2023/08/25 07:39:17;;;;;;;3.35;1.20;;;17.20;99.90;;;;;;5074086;28;20199;-80
2023/08/25 07:41:48;;;;;;;4.40;1.40;;;17.20;99.90;;;;;;5082134;28;20188;-80
2023/08/25 07:44:21;;;;;;;3.60;1.50;;;17.10;99.90;;;;;;5073709;28;20220;-78
2023/08/25 07:46:52;;;;;;;5.10;1.50;;;17.10;99.90;;;;;;5079817;28;20201;-79
2023/08/25 07:49:22;;;;;;;5.25;1.30;;;17.10;99.90;;;;;;5077063;28;20198;-80
2023/08/25 07:51:53;;;;;;;3.35;1.35;;;17.00;99.90;;;;;;5092612;28;20188;-80
2023/08/25 07:54:24;;;;;;;5.55;1.50;;;16.90;99.90;;;;;;5091357;28;20193;-80
2023/08/25 07:56:55;;;;;;;4.22;1.30;;;16.90;99.90;;;;;;5088553;28;20298;-80
2023/08/25 07:59:27;;;;;;;3.80;1.48;;;16.90;99.90;;;;;;5096872;28;20185;-79
2023/08/25 08:01:58;;;;;;;3.15;1.40;;;16.80;99.90;;;;;;5086259;28;20651;-73
2023/08/25 08:04:31;;;;;;;3.83;1.42;;;16.80;99.90;;;;;;5077451;28;20223;-73
2023/08/25 08:07:02;;;;;;;6.30;2.20;;;16.80;99.90;;;;;;5076608;28;20201;-72
2023/08/25 08:09:33;;;;;;;5.78;2.50;;;16.80;99.90;;;;;;5078579;28;20184;-78
2023/08/25 08:12:04;;;;;;;4.70;2.95;;;16.70;99.90;;;;;;5078030;28;20232;-77
2023/08/25 08:14:36;;;;;;;4.28;2.70;;;16.70;99.90;;;;;;5089808;28;20193;-78
2023/08/25 08:17:08;;;;;;;4.95;2.67;;;16.60;99.90;;;;;;5076030;28;20185;-78
2023/08/25 08:19:39;;;;;;;4.65;2.33;;;16.50;99.90;;;;;;5082687;28;20217;-79
2023/08/25 08:22:09;;;;;;;6.68;2.80;;;16.50;99.90;;;;;;5080566;28;20197;-75
2023/08/25 08:24:41;;;;;;;4.18;2.70;;;16.50;99.90;;;;;;5080736;28;20224;-79
2023/08/25 08:27:12;;;;;;;5.55;2.80;;;16.40;99.90;;;;;;5076139;28;20624;-77
2023/08/25 08:29:45;;;;;;;5.88;2.80;;;16.30;99.90;;;;;;5080234;28;20184;-76
2023/08/25 08:32:16;;;;;;;5.20;2.20;;;16.30;99.90;;;;;;5086456;28;20197;-76
2023/08/25 08:34:47;;;;;;;6.85;2.30;;;16.30;99.90;;;;;;5075737;28;20666;-77
2023/08/25 08:37:18;;;;;;;3.97;2.28;;;16.20;99.90;;;;;;5079075;28;20193;-76
2023/08/25 08:39:49;;;;;;;5.68;2.53;;;16.20;99.90;;;;;;5075083;28;20201;-75
2023/08/25 08:42:20;;;;;;;4.50;2.30;;;16.10;99.90;;;;;;5079076;28;20200;-74
2023/08/25 08:44:53;;;;;;;4.43;2.47;;;16.00;99.90;;;;;;5081444;28;20212;-76
2023/08/25 08:47:24;;;;;;;4.93;2.40;;;16.00;99.90;;;;;;5076871;28;20200;-76
2023/08/25 08:49:55;;;;;;;4.10;2.50;;;16.00;99.90;;;;;;5088437;28;20185;-73
2023/08/25 08:52:26;;;;;;;6.45;2.60;;;15.90;99.90;;;;;;5086799;28;20188;-76
2023/08/25 08:54:58;;;;;;;5.60;2.72;;;15.90;99.90;;;;;;5080679;28;20193;-76
2023/08/25 08:57:29;;;;;;;5.57;2.55;;;15.90;99.90;;;;;;5091969;28;20242;-75
2023/08/25 09:00:03;;;;;;;4.78;2.70;;;15.80;99.90;;;;;;5081049;28;20400;-75
2023/08/25 09:02:35;;;;;;;5.97;3.28;;;15.80;99.90;;;;;;5078845;28;20218;-73
2023/08/25 09:05:08;;;;;;;5.82;3.28;;;15.80;99.90;;;;;;5075411;28;20278;-75
2023/08/25 09:07:40;;;;;;;8.32;3.42;;;15.70;99.90;;;;;;5079662;28;20612;-77
2023/08/25 09:10:12;;;;;;;5.65;2.80;;;15.70;99.90;;;;;;5074775;28;20291;-73
2023/08/25 09:12:43;;;;;;;5.47;2.80;;;15.70;99.90;;;;;;5069228;28;20665;-74
2023/08/25 09:15:28;;;;;;;4.45;2.60;;;15.70;99.90;;;;;;5064576;28;20560;-74
2023/08/25 09:18:04;;;;;;;7.65;3.10;;;15.70;99.90;;;;;;5068367;28;20196;-73
2023/08/25 09:20:38;;;;;;;5.47;2.90;;;15.70;99.90;;;;;;5063247;28;20225;-73
2023/08/25 09:23:09;;;;;;;7.00;3.00;;;15.60;99.90;;;;;;5061942;28;20280;-73
2023/08/25 09:25:43;;;;;;;5.70;2.97;;;15.60;99.90;;;;;;5057699;28;20237;-74
2023/08/25 09:28:14;;;;;;;5.75;3.20;;;15.60;99.90;;;;;;5063083;28;20569;-75
2023/08/25 09:30:47;;;;;;;7.10;2.70;;;15.50;99.90;;;;;;5066556;28;20190;-73
2023/08/25 09:33:17;;;;;;;3.90;2.50;;;15.50;99.90;;;;;;5060766;28;20205;-76
2023/08/25 09:35:48;;;;;;;6.90;2.70;;;15.50;99.90;;;;;;5071520;28;20193;-74
2023/08/25 09:38:25;;;;;;;6.28;2.75;;;15.40;99.90;;;;;;5068617;28;20197;-73
2023/08/25 09:40:57;;;;;;;5.25;2.83;;;15.40;99.90;;;;;;5069389;28;20219;-73
2023/08/25 09:43:33;;;;;;;6.60;3.60;;;15.40;99.90;;;;;;5069001;28;20250;-74
2023/08/25 09:46:08;;;;;;;7.45;3.90;;;15.40;99.90;;;;;;5053933;28;20251;-73
2023/08/25 09:48:39;;;;;;;7.28;3.80;;;15.40;99.90;;;;;;5056583;28;20193;-73
2023/08/25 09:51:11;;;;;;;7.60;3.80;;;15.30;99.90;;;;;;5057353;28;20244;-73
2023/08/25 09:53:43;;;;;;;10.52;4.10;;;15.30;99.90;;;;;;5062428;28;20201;-73
2023/08/25 09:56:14;;;;;;;8.50;4.20;;;15.30;99.90;;;;;;5070032;28;20208;-72
2023/08/25 09:58:46;;;;;;;9.60;4.40;;;15.30;99.90;;;;;;5057848;28;20194;-73
2023/08/25 10:01:19;;;;;;;8.60;4.68;;;15.20;99.90;;;;;;5063832;28;20193;-73
2023/08/25 10:03:50;;;;;;;9.82;5.00;;;15.30;99.90;;;;;;5064545;28;20562;-73
2023/08/25 10:06:20;;;;;;;11.63;5.53;;;15.20;99.90;;;;;;5064996;28;20225;-74
2023/08/25 10:08:51;;;;;;;12.00;5.97;;;15.20;99.90;;;;;;5054903;28;20193;-74
2023/08/25 10:11:24;;;;;;;11.18;6.32;;;15.20;99.90;;;;;;5070168;28;20220;-73
2023/08/25 10:13:57;;;;;;;13.95;6.78;;;15.20;99.90;;;;;;5078536;28;20192;-73
2023/08/25 10:16:30;;;;;;;16.00;6.43;;;15.10;99.90;;;;;;5073649;28;20254;-72
2023/08/25 10:19:04;;;;;;;13.93;6.88;;;15.10;99.90;;;;;;5073552;28;20225;-74
2023/08/25 10:21:36;;;;;;;12.07;6.20;;;15.10;99.90;;;;;;5075985;28;20201;-73
2023/08/25 10:24:08;;;;;;;17.77;6.65;;;15.10;99.90;;;;;;5071741;28;20197;-73
2023/08/25 10:26:39;;;;;;;12.65;5.97;;;15.10;99.90;;;;;;5072301;28;20713;-73
2023/08/25 10:29:11;;;;;;;12.85;6.28;;;15.00;99.90;;;;;;5073506;28;20201;-75
2023/08/25 10:31:49;;;;;;;15.07;6.47;;;15.00;99.90;;;;;;5076676;28;20193;-75
2023/08/25 10:34:36;;;;;;;13.20;6.10;;;15.00;99.90;;;;;;5081937;28;20203;-74
2023/08/25 10:37:10;;;;;;;10.77;5.68;;;15.00;99.90;;;;;;5087656;28;20931;-74
2023/08/25 10:39:51;;;;;;;12.63;5.90;;;14.90;99.90;;;;;;5074421;28;20193;-77
2023/08/25 10:42:27;;;;;;;13.30;5.65;;;14.90;99.90;;;;;;5073093;28;20205;-77
2023/08/25 10:44:59;;;;;;;13.57;5.53;;;14.90;99.90;;;;;;5074307;28;20200;-78
2023/08/25 10:47:31;;;;;;;12.50;5.57;;;14.90;99.90;;;;;;5078484;28;20207;-76
2023/08/25 10:50:06;;;;;;;11.68;5.22;;;14.90;99.90;;;;;;5072725;28;20189;-78
2023/08/25 10:52:43;;;;;;;8.82;4.80;;;14.90;99.90;;;;;;5073391;28;20203;-78
2023/08/25 10:55:32;;;;;;;10.52;5.10;;;14.90;99.90;;;;;;5072988;28;20200;-77
2023/08/25 10:58:06;;;;;;;7.60;4.97;;;14.90;99.90;;;;;;5079334;28;20649;-76
2023/08/25 11:00:43;;;;;;;8.52;5.00;;;14.90;99.90;;;;;;5074243;28;20196;-75
2023/08/25 11:03:16;;;;;;;9.07;4.97;;;14.90;99.90;;;;;;5079452;28;20196;-76
2023/08/25 11:05:47;;;;;;;11.02;5.20;;;14.80;99.90;;;;;;5087158;28;20650;-77
2023/08/25 11:08:29;;;;;;;10.93;5.30;;;14.80;99.90;;;;;;5075374;28;20572;-77
2023/08/25 11:11:18;;;;;;;8.98;5.03;;;14.80;99.90;;;;;;5073652;28;20289;-77
2023/08/25 11:13:49;;;;;;;8.20;5.25;;;14.70;99.90;;;;;;5072691;28;20204;-76
2023/08/25 11:16:20;;;;;;;10.02;5.47;;;14.70;99.90;;;;;;5075207;28;20197;-77
2023/08/25 11:18:53;;;;;;;11.82;5.10;;;14.70;99.90;;;;;;5072807;28;20220;-77
2023/08/25 11:21:27;;;;;;;9.98;5.60;;;14.70;99.90;;;;;;5071448;28;20203;-77
2023/08/25 11:23:57;;;;;;;9.75;5.60;;;14.60;99.90;;;;;;5076684;28;20235;-77
2023/08/25 11:26:28;;;;;;;10.13;5.30;;;14.60;99.90;;;;;;5084072;28;20219;-76
2023/08/25 11:28:59;;;;;;;11.57;5.63;;;14.60;99.90;;;;;;5078042;28;20189;-76
2023/08/25 11:31:31;;;;;;;12.38;5.38;;;14.60;99.90;;;;;;5078691;28;20555;-76
2023/08/25 11:34:04;;;;;;;10.10;5.35;;;14.60;99.90;;;;;;5099248;28;20203;-76
2023/08/25 11:36:38;;;;;;;12.60;5.75;;;14.60;99.90;;;;;;5099749;28;20188;-76
2023/08/25 11:39:17;;;;;;;11.98;6.00;;;14.60;99.90;;;;;;5100344;28;20199;-76
2023/08/25 11:41:48;;;;;;;9.98;5.65;;;14.60;99.90;;;;;;5098142;28;20649;-76
2023/08/25 11:44:19;;;;;;;13.10;6.32;;;14.60;99.90;;;;;;5098133;28;20568;-78
2023/08/25 11:46:50;;;;;;;12.52;6.53;;;14.60;99.90;;;;;;5097574;28;20285;-76
2023/08/25 11:49:23;;;;;;;10.60;6.63;;;14.50;99.90;;;;;;5079689;28;20326;-77
2023/08/25 11:51:56;;;;;;;13.35;7.35;;;14.50;99.90;;;;;;5079387;28;20589;-77
2023/08/25 11:54:27;;;;;;;13.05;7.45;;;14.50;99.90;;;;;;5079432;28;20196;-78
2023/08/25 11:56:58;;;;;;;14.55;7.70;;;14.50;99.90;;;;;;5080196;28;20189;-76
2023/08/25 11:59:30;;;;;;;14.00;7.68;;;14.50;99.90;;;;;;5089183;28;20191;-77
2023/08/25 12:02:03;;;;;;;12.93;7.88;;;14.50;99.90;;;;;;5098180;28;20675;-77
2023/08/25 12:04:36;;;;;;;15.02;7.30;;;14.50;99.90;;;;;;5098983;28;20211;-77
2023/08/25 12:07:07;;;;;;;11.88;7.47;;;14.50;99.90;;;;;;5099504;28;20215;-77
2023/08/25 12:09:37;;;;;;;12.73;7.63;;;14.50;99.90;;;;;;5099499;28;20199;-77
2023/08/25 12:12:09;;;;;;;12.68;7.97;;;14.50;99.90;;;;;;5099202;28;20231;-73
2023/08/25 12:14:42;;;;;;;15.13;8.38;;;14.40;99.90;;;;;;5090526;28;20189;-76
2023/08/25 12:17:24;;;;;;;15.07;7.90;;;14.50;99.90;;;;;;5098433;28;20207;-76
2023/08/25 12:19:58;;;;;;;13.02;7.85;;;14.50;99.90;;;;;;5086276;28;20570;-73
2023/08/25 12:22:28;;;;;;;14.85;7.47;;;14.40;99.90;;;;;;5083533;28;20197;-76
2023/08/25 12:24:59;;;;;;;13.57;7.38;;;14.50;99.90;;;;;;5086527;28;20204;-77
2023/08/25 12:27:30;;;;;;;12.98;7.30;;;14.40;99.90;;;;;;5080630;28;20208;-75
2023/08/25 12:30:01;;;;;;;13.63;7.40;;;14.40;99.90;;;;;;5082619;28;20196;-76
2023/08/25 12:32:31;;;;;;;14.23;7.70;;;14.40;99.90;;;;;;5091013;28;20195;-76
2023/08/25 12:35:04;;;;;;;12.95;7.30;;;14.40;99.90;;;;;;5099222;28;20195;-77
2023/08/25 12:37:35;;;;;;;10.38;6.57;;;14.40;99.90;;;;;;5077497;28;20205;-80
2023/08/25 12:40:06;;;;;;;12.35;6.75;;;14.30;99.90;;;;;;5076374;28;20239;-79
2023/08/25 12:42:37;;;;;;;12.13;6.25;;;14.30;99.90;;;;;;5093794;28;20192;-78
2023/08/25 12:45:10;;;;;;;14.32;6.03;;;14.30;99.90;;;;;;5095984;28;20195;-76
2023/08/25 12:47:41;;;;;;;10.10;6.25;;;14.30;99.90;;;;;;5092688;28;20208;-77
2023/08/25 12:50:14;;;;;;;9.25;6.07;;;14.20;99.90;;;;;;5076452;28;20185;-76
2023/08/25 12:52:45;;;;;;;12.02;6.70;;;14.20;99.90;;;;;;5075841;28;20276;-75
2023/08/25 12:55:16;;;;;;;12.25;6.72;;;14.20;99.90;;;;;;5085773;28;20196;-74
2023/08/25 12:57:47;;;;;;;11.68;6.82;;;14.20;99.90;;;;;;5091003;28;20200;-73
2023/08/25 13:00:18;;;;;;;10.60;7.20;;;14.20;99.90;;;;;;5084352;28;20251;-74
2023/08/25 13:02:49;;;;;;;12.45;7.28;;;14.20;99.90;;;;;;5079421;28;20276;-73
2023/08/25 13:05:23;;;;;;;13.63;7.40;;;14.10;99.90;;;;;;5085679;28;20659;-73
2023/08/25 13:07:54;;;;;;;17.05;8.07;;;14.10;99.90;;;;;;5083178;28;20203;-75
2023/08/25 13:10:24;;;;;;;15.90;8.07;;;14.10;99.90;;;;;;5093490;28;20253;-77